Springbrook, North Dakota
Current Conditions -  °F | °C
As of 11:52 AM on Thursday 23 Oct 2014 (Local Time) from KISN Reporting Station
Clear Clear  
Wind Chill: 50°   Ceiling: Unl
Heat Index: 50°   Visibility: 10mi
Dew Point: 33°   Wind: 9mph
Humidity: 52%   Direction: 210°SSW
Pressure: 29.82"   Gusts: NA
Location:  48.2414°N, 103.345°W
Report Text: KISN 231652Z AUTO 21008KT 10SM CLR 10/01 A2982 RMK AO2 SLP107 T01000006
Loading
Personal Weather Stations






























Interactive Weather Map
Tropical Storm Tracking
New forecast layout! Learn more

10-Day Weather Forecast

Advertisements
Track Severe Weather on mobile